sensor_id;sensor_type;location;lat;lon;timestamp;P1;durP1;ratioP1;P2;durP2;ratioP2
57107;SDS011;42987;52.916;6.542;2024-03-06T00:02:06;16.17;;;14.20;;
57107;SDS011;42987;52.916;6.542;2024-03-06T00:04:32;20.85;;;12.90;;
57107;SDS011;42987;52.916;6.542;2024-03-06T00:06:58;15.60;;;13.43;;
57107;SDS011;42987;52.916;6.542;2024-03-06T00:09:24;18.05;;;13.20;;
57107;SDS011;42987;52.916;6.542;2024-03-06T00:11:53;17.98;;;12.98;;
57107;SDS011;42987;52.916;6.542;2024-03-06T00:14:20;13.98;;;12.48;;
57107;SDS011;42987;52.916;6.542;2024-03-06T00:16:49;15.65;;;12.70;;
57107;SDS011;42987;52.916;6.542;2024-03-06T00:19:19;17.27;;;13.80;;
57107;SDS011;42987;52.916;6.542;2024-03-06T00:21:45;14.60;;;12.75;;
57107;SDS011;42987;52.916;6.542;2024-03-06T00:24:12;17.75;;;12.95;;
57107;SDS011;42987;52.916;6.542;2024-03-06T00:26:42;20.60;;;13.82;;
57107;SDS011;42987;52.916;6.542;2024-03-06T00:29:09;15.45;;;12.88;;
57107;SDS011;42987;52.916;6.542;2024-03-06T00:31:35;15.93;;;12.48;;
57107;SDS011;42987;52.916;6.542;2024-03-06T00:34:01;15.20;;;12.52;;
57107;SDS011;42987;52.916;6.542;2024-03-06T00:36:27;17.83;;;13.38;;
57107;SDS011;42987;52.916;6.542;2024-03-06T00:38:53;17.95;;;13.35;;
57107;SDS011;42987;52.916;6.542;2024-03-06T00:41:19;18.55;;;13.70;;
57107;SDS011;42987;52.916;6.542;2024-03-06T00:43:44;20.95;;;14.02;;
57107;SDS011;42987;52.916;6.542;2024-03-06T00:46:10;17.17;;;13.85;;
57107;SDS011;42987;52.916;6.542;2024-03-06T00:48:36;16.33;;;12.90;;
57107;SDS011;42987;52.916;6.542;2024-03-06T00:51:04;16.70;;;13.73;;
57107;SDS011;42987;52.916;6.542;2024-03-06T00:53:32;18.02;;;14.45;;
57107;SDS011;42987;52.916;6.542;2024-03-06T00:55:59;15.68;;;13.57;;
57107;SDS011;42987;52.916;6.542;2024-03-06T00:58:25;14.93;;;13.25;;
57107;SDS011;42987;52.916;6.542;2024-03-06T01:00:51;17.13;;;13.40;;
57107;SDS011;42987;52.916;6.542;2024-03-06T01:03:17;19.50;;;13.68;;
57107;SDS011;42987;52.916;6.542;2024-03-06T01:05:43;15.75;;;12.77;;
57107;SDS011;42987;52.916;6.542;2024-03-06T01:08:08;17.80;;;13.27;;
57107;SDS011;42987;52.916;6.542;2024-03-06T01:10:34;17.17;;;14.23;;
57107;SDS011;42987;52.916;6.542;2024-03-06T01:13:00;18.15;;;14.13;;
57107;SDS011;42987;52.916;6.542;2024-03-06T01:15:27;19.60;;;13.20;;
57107;SDS011;42987;52.916;6.542;2024-03-06T01:17:52;17.45;;;13.13;;
57107;SDS011;42987;52.916;6.542;2024-03-06T01:20:18;18.88;;;13.38;;
57107;SDS011;42987;52.916;6.542;2024-03-06T01:22:44;18.13;;;12.93;;
57107;SDS011;42987;52.916;6.542;2024-03-06T01:25:11;18.98;;;13.90;;
57107;SDS011;42987;52.916;6.542;2024-03-06T01:27:37;19.63;;;13.32;;
57107;SDS011;42987;52.916;6.542;2024-03-06T01:30:03;16.80;;;14.13;;
57107;SDS011;42987;52.916;6.542;2024-03-06T01:32:29;19.20;;;13.90;;
57107;SDS011;42987;52.916;6.542;2024-03-06T01:34:55;19.23;;;13.40;;
57107;SDS011;42987;52.916;6.542;2024-03-06T01:37:21;16.25;;;13.90;;
57107;SDS011;42987;52.916;6.542;2024-03-06T01:39:47;17.25;;;14.00;;
57107;SDS011;42987;52.916;6.542;2024-03-06T01:42:12;16.23;;;13.63;;
57107;SDS011;42987;52.916;6.542;2024-03-06T01:44:39;18.65;;;13.60;;
57107;SDS011;42987;52.916;6.542;2024-03-06T01:47:05;16.20;;;13.57;;
57107;SDS011;42987;52.916;6.542;2024-03-06T01:49:32;20.23;;;13.98;;
57107;SDS011;42987;52.916;6.542;2024-03-06T01:51:57;20.48;;;14.43;;
57107;SDS011;42987;52.916;6.542;2024-03-06T01:54:24;16.85;;;13.75;;
57107;SDS011;42987;52.916;6.542;2024-03-06T01:56:51;17.90;;;13.80;;
57107;SDS011;42987;52.916;6.542;2024-03-06T01:59:19;20.58;;;13.07;;
57107;SDS011;42987;52.916;6.542;2024-03-06T02:01:46;15.77;;;13.00;;
57107;SDS011;42987;52.916;6.542;2024-03-06T02:04:12;17.80;;;14.13;;
57107;SDS011;42987;52.916;6.542;2024-03-06T02:06:39;17.67;;;14.23;;
57107;SDS011;42987;52.916;6.542;2024-03-06T02:09:05;17.50;;;13.77;;
57107;SDS011;42987;52.916;6.542;2024-03-06T02:11:35;15.77;;;14.05;;
57107;SDS011;42987;52.916;6.542;2024-03-06T02:14:07;16.77;;;13.23;;
57107;SDS011;42987;52.916;6.542;2024-03-06T02:16:38;17.00;;;13.90;;
57107;SDS011;42987;52.916;6.542;2024-03-06T02:19:07;16.27;;;13.20;;
57107;SDS011;42987;52.916;6.542;2024-03-06T02:21:33;17.40;;;13.43;;
57107;SDS011;42987;52.916;6.542;2024-03-06T02:24:02;18.17;;;13.82;;
57107;SDS011;42987;52.916;6.542;2024-03-06T02:26:28;18.00;;;13.77;;
57107;SDS011;42987;52.916;6.542;2024-03-06T02:28:54;21.38;;;14.02;;
57107;SDS011;42987;52.916;6.542;2024-03-06T02:31:21;16.38;;;14.27;;
57107;SDS011;42987;52.916;6.542;2024-03-06T02:33:48;16.35;;;13.43;;
57107;SDS011;42987;52.916;6.542;2024-03-06T02:36:17;17.48;;;13.90;;
57107;SDS011;42987;52.916;6.542;2024-03-06T02:38:44;20.52;;;14.55;;
57107;SDS011;42987;52.916;6.542;2024-03-06T02:41:10;18.20;;;14.10;;
57107;SDS011;42987;52.916;6.542;2024-03-06T02:43:39;17.63;;;13.85;;
57107;SDS011;42987;52.916;6.542;2024-03-06T02:46:05;18.02;;;13.93;;
57107;SDS011;42987;52.916;6.542;2024-03-06T02:48:30;15.50;;;13.43;;
57107;SDS011;42987;52.916;6.542;2024-03-06T02:50:56;16.98;;;14.27;;
57107;SDS011;42987;52.916;6.542;2024-03-06T02:53:22;16.05;;;13.88;;
57107;SDS011;42987;52.916;6.542;2024-03-06T02:55:48;18.67;;;13.20;;
57107;SDS011;42987;52.916;6.542;2024-03-06T02:58:14;19.10;;;13.68;;
57107;SDS011;42987;52.916;6.542;2024-03-06T03:00:41;18.17;;;14.38;;
57107;SDS011;42987;52.916;6.542;2024-03-06T03:03:08;16.67;;;13.25;;
57107;SDS011;42987;52.916;6.542;2024-03-06T03:05:35;17.05;;;13.70;;
57107;SDS011;42987;52.916;6.542;2024-03-06T03:08:04;16.23;;;13.13;;
57107;SDS011;42987;52.916;6.542;2024-03-06T03:10:31;16.40;;;13.35;;
57107;SDS011;42987;52.916;6.542;2024-03-06T03:12:59;15.98;;;13.90;;
57107;SDS011;42987;52.916;6.542;2024-03-06T03:15:25;16.00;;;13.77;;
57107;SDS011;42987;52.916;6.542;2024-03-06T03:17:51;16.33;;;13.30;;
57107;SDS011;42987;52.916;6.542;2024-03-06T03:20:17;17.50;;;14.18;;
57107;SDS011;42987;52.916;6.542;2024-03-06T03:22:43;17.83;;;13.00;;
57107;SDS011;42987;52.916;6.542;2024-03-06T03:25:09;16.98;;;14.10;;
57107;SDS011;42987;52.916;6.542;2024-03-06T03:27:42;18.50;;;14.57;;
57107;SDS011;42987;52.916;6.542;2024-03-06T03:30:12;18.42;;;14.32;;
57107;SDS011;42987;52.916;6.542;2024-03-06T03:32:38;16.63;;;14.50;;
57107;SDS011;42987;52.916;6.542;2024-03-06T03:35:07;17.77;;;15.13;;
57107;SDS011;42987;52.916;6.542;2024-03-06T03:37:33;15.88;;;13.80;;
57107;SDS011;42987;52.916;6.542;2024-03-06T03:39:59;17.42;;;13.75;;
57107;SDS011;42987;52.916;6.542;2024-03-06T03:44:55;18.10;;;14.02;;
57107;SDS011;42987;52.916;6.542;2024-03-06T03:47:21;17.27;;;13.98;;
57107;SDS011;42987;52.916;6.542;2024-03-06T03:49:47;17.75;;;14.38;;
57107;SDS011;42987;52.916;6.542;2024-03-06T03:52:13;17.73;;;13.68;;
57107;SDS011;42987;52.916;6.542;2024-03-06T03:54:38;18.83;;;14.90;;
57107;SDS011;42987;52.916;6.542;2024-03-06T03:57:04;16.23;;;13.95;;
57107;SDS011;42987;52.916;6.542;2024-03-06T03:59:32;18.67;;;15.45;;
57107;SDS011;42987;52.916;6.542;2024-03-06T04:01:57;20.63;;;14.88;;
57107;SDS011;42987;52.916;6.542;2024-03-06T04:04:23;16.42;;;14.75;;
57107;SDS011;42987;52.916;6.542;2024-03-06T04:06:49;21.95;;;14.80;;
57107;SDS011;42987;52.916;6.542;2024-03-06T04:09:15;17.77;;;14.60;;
57107;SDS011;42987;52.916;6.542;2024-03-06T04:11:41;17.88;;;15.75;;
57107;SDS011;42987;52.916;6.542;2024-03-06T04:14:07;18.75;;;15.65;;
57107;SDS011;42987;52.916;6.542;2024-03-06T04:16:33;17.52;;;15.52;;
57107;SDS011;42987;52.916;6.542;2024-03-06T04:19:02;18.15;;;14.55;;
57107;SDS011;42987;52.916;6.542;2024-03-06T04:21:28;18.27;;;14.63;;
57107;SDS011;42987;52.916;6.542;2024-03-06T04:23:54;22.38;;;15.75;;
57107;SDS011;42987;52.916;6.542;2024-03-06T04:26:20;17.50;;;14.68;;
57107;SDS011;42987;52.916;6.542;2024-03-06T04:28:46;18.27;;;15.30;;
57107;SDS011;42987;52.916;6.542;2024-03-06T04:31:12;18.13;;;15.15;;
57107;SDS011;42987;52.916;6.542;2024-03-06T04:33:38;18.48;;;16.05;;
57107;SDS011;42987;52.916;6.542;2024-03-06T04:36:06;23.23;;;15.73;;
57107;SDS011;42987;52.916;6.542;2024-03-06T04:38:33;18.08;;;15.30;;
57107;SDS011;42987;52.916;6.542;2024-03-06T04:40:59;18.50;;;15.63;;
57107;SDS011;42987;52.916;6.542;2024-03-06T04:43:25;17.05;;;14.75;;
57107;SDS011;42987;52.916;6.542;2024-03-06T04:45:51;19.13;;;15.75;;
57107;SDS011;42987;52.916;6.542;2024-03-06T04:48:17;17.35;;;15.57;;
57107;SDS011;42987;52.916;6.542;2024-03-06T04:50:43;19.17;;;15.80;;
57107;SDS011;42987;52.916;6.542;2024-03-06T04:53:09;20.90;;;16.35;;
57107;SDS011;42987;52.916;6.542;2024-03-06T04:55:36;17.88;;;16.05;;
57107;SDS011;42987;52.916;6.542;2024-03-06T04:58:02;21.27;;;16.48;;
57107;SDS011;42987;52.916;6.542;2024-03-06T05:00:28;21.25;;;16.55;;
57107;SDS011;42987;52.916;6.542;2024-03-06T05:02:55;18.15;;;15.68;;
57107;SDS011;42987;52.916;6.542;2024-03-06T05:05:21;17.60;;;15.50;;
57107;SDS011;42987;52.916;6.542;2024-03-06T05:07:47;20.42;;;16.30;;
57107;SDS011;42987;52.916;6.542;2024-03-06T05:10:13;19.88;;;15.60;;
57107;SDS011;42987;52.916;6.542;2024-03-06T05:12:41;20.30;;;16.58;;
57107;SDS011;42987;52.916;6.542;2024-03-06T05:15:08;19.42;;;15.82;;
57107;SDS011;42987;52.916;6.542;2024-03-06T05:17:35;18.45;;;16.30;;
57107;SDS011;42987;52.916;6.542;2024-03-06T05:20:01;19.10;;;16.30;;
57107;SDS011;42987;52.916;6.542;2024-03-06T05:22:29;18.95;;;16.20;;
57107;SDS011;42987;52.916;6.542;2024-03-06T05:24:55;18.33;;;15.93;;
57107;SDS011;42987;52.916;6.542;2024-03-06T05:27:21;18.63;;;16.70;;
57107;SDS011;42987;52.916;6.542;2024-03-06T05:29:47;20.98;;;16.83;;
57107;SDS011;42987;52.916;6.542;2024-03-06T05:32:13;19.80;;;16.98;;
57107;SDS011;42987;52.916;6.542;2024-03-06T05:34:39;20.50;;;17.40;;
57107;SDS011;42987;52.916;6.542;2024-03-06T05:37:04;18.80;;;16.73;;
57107;SDS011;42987;52.916;6.542;2024-03-06T05:39:31;20.08;;;16.65;;
57107;SDS011;42987;52.916;6.542;2024-03-06T05:42:01;19.98;;;17.23;;
57107;SDS011;42987;52.916;6.542;2024-03-06T05:44:28;19.15;;;16.13;;
57107;SDS011;42987;52.916;6.542;2024-03-06T05:46:55;21.58;;;16.98;;
57107;SDS011;42987;52.916;6.542;2024-03-06T05:49:22;19.58;;;17.20;;
57107;SDS011;42987;52.916;6.542;2024-03-06T05:51:48;21.27;;;17.52;;
57107;SDS011;42987;52.916;6.542;2024-03-06T05:54:14;22.10;;;16.67;;
57107;SDS011;42987;52.916;6.542;2024-03-06T05:56:40;19.15;;;16.95;;
57107;SDS011;42987;52.916;6.542;2024-03-06T05:59:07;20.88;;;16.73;;
57107;SDS011;42987;52.916;6.542;2024-03-06T06:01:33;23.13;;;18.00;;
57107;SDS011;42987;52.916;6.542;2024-03-06T06:04:00;20.75;;;18.42;;
57107;SDS011;42987;52.916;6.542;2024-03-06T06:06:27;20.17;;;17.40;;
57107;SDS011;42987;52.916;6.542;2024-03-06T06:08:53;20.70;;;18.50;;
57107;SDS011;42987;52.916;6.542;2024-03-06T06:11:19;19.35;;;17.25;;
57107;SDS011;42987;52.916;6.542;2024-03-06T06:13:45;23.15;;;17.45;;
57107;SDS011;42987;52.916;6.542;2024-03-06T06:16:12;22.17;;;17.98;;
57107;SDS011;42987;52.916;6.542;2024-03-06T06:18:40;23.02;;;17.77;;
57107;SDS011;42987;52.916;6.542;2024-03-06T06:21:07;21.02;;;18.02;;
57107;SDS011;42987;52.916;6.542;2024-03-06T06:23:33;23.35;;;18.98;;
57107;SDS011;42987;52.916;6.542;2024-03-06T06:26:02;23.95;;;18.58;;
57107;SDS011;42987;52.916;6.542;2024-03-06T06:28:27;21.60;;;18.63;;
57107;SDS011;42987;52.916;6.542;2024-03-06T06:30:53;24.77;;;19.73;;
57107;SDS011;42987;52.916;6.542;2024-03-06T06:33:19;22.20;;;19.00;;
57107;SDS011;42987;52.916;6.542;2024-03-06T06:35:48;20.67;;;18.35;;
57107;SDS011;42987;52.916;6.542;2024-03-06T06:38:14;20.52;;;18.33;;
57107;SDS011;42987;52.916;6.542;2024-03-06T06:40:40;23.40;;;19.90;;
57107;SDS011;42987;52.916;6.542;2024-03-06T06:43:05;22.73;;;18.90;;
57107;SDS011;42987;52.916;6.542;2024-03-06T06:45:31;22.40;;;18.85;;
57107;SDS011;42987;52.916;6.542;2024-03-06T06:47:57;20.83;;;17.92;;
57107;SDS011;42987;52.916;6.542;2024-03-06T06:50:23;21.45;;;18.67;;
57107;SDS011;42987;52.916;6.542;2024-03-06T06:52:51;22.25;;;18.92;;
57107;SDS011;42987;52.916;6.542;2024-03-06T06:55:17;23.38;;;19.13;;
57107;SDS011;42987;52.916;6.542;2024-03-06T06:57:43;21.05;;;18.73;;
57107;SDS011;42987;52.916;6.542;2024-03-06T07:00:09;22.02;;;18.05;;
57107;SDS011;42987;52.916;6.542;2024-03-06T07:02:39;22.70;;;19.53;;
57107;SDS011;42987;52.916;6.542;2024-03-06T07:05:06;20.48;;;18.25;;
57107;SDS011;42987;52.916;6.542;2024-03-06T07:07:33;21.58;;;19.35;;
57107;SDS011;42987;52.916;6.542;2024-03-06T07:10:00;24.25;;;20.00;;
57107;SDS011;42987;52.916;6.542;2024-03-06T07:12:27;22.23;;;19.83;;
57107;SDS011;42987;52.916;6.542;2024-03-06T07:14:52;20.58;;;18.10;;
57107;SDS011;42987;52.916;6.542;2024-03-06T07:17:18;20.40;;;18.17;;
57107;SDS011;42987;52.916;6.542;2024-03-06T07:19:44;22.40;;;19.55;;
57107;SDS011;42987;52.916;6.542;2024-03-06T07:22:10;22.08;;;18.83;;
57107;SDS011;42987;52.916;6.542;2024-03-06T07:24:36;21.60;;;19.30;;
57107;SDS011;42987;52.916;6.542;2024-03-06T07:27:02;21.40;;;18.35;;
57107;SDS011;42987;52.916;6.542;2024-03-06T07:29:28;20.75;;;18.55;;
57107;SDS011;42987;52.916;6.542;2024-03-06T07:31:54;22.95;;;20.13;;
57107;SDS011;42987;52.916;6.542;2024-03-06T07:34:20;23.77;;;19.58;;
57107;SDS011;42987;52.916;6.542;2024-03-06T07:36:46;25.63;;;19.45;;
57107;SDS011;42987;52.916;6.542;2024-03-06T07:39:15;21.40;;;19.10;;
57107;SDS011;42987;52.916;6.542;2024-03-06T07:41:41;22.40;;;18.95;;
57107;SDS011;42987;52.916;6.542;2024-03-06T07:44:07;20.88;;;18.67;;
57107;SDS011;42987;52.916;6.542;2024-03-06T07:46:36;21.20;;;18.27;;
57107;SDS011;42987;52.916;6.542;2024-03-06T07:49:02;22.10;;;18.92;;
57107;SDS011;42987;52.916;6.542;2024-03-06T07:51:30;22.40;;;18.70;;
57107;SDS011;42987;52.916;6.542;2024-03-06T07:53:57;20.17;;;18.00;;
57107;SDS011;42987;52.916;6.542;2024-03-06T07:56:24;21.73;;;19.42;;
57107;SDS011;42987;52.916;6.542;2024-03-06T07:58:53;23.50;;;19.55;;
57107;SDS011;42987;52.916;6.542;2024-03-06T08:01:20;20.77;;;18.58;;
57107;SDS011;42987;52.916;6.542;2024-03-06T08:03:48;22.48;;;19.17;;
57107;SDS011;42987;52.916;6.542;2024-03-06T08:06:15;21.85;;;18.70;;
57107;SDS011;42987;52.916;6.542;2024-03-06T08:08:44;20.50;;;18.25;;
57107;SDS011;42987;52.916;6.542;2024-03-06T08:11:10;21.77;;;18.97;;
57107;SDS011;42987;52.916;6.542;2024-03-06T08:13:37;21.02;;;18.73;;
57107;SDS011;42987;52.916;6.542;2024-03-06T08:16:03;20.83;;;18.20;;
57107;SDS011;42987;52.916;6.542;2024-03-06T08:18:30;26.48;;;18.33;;
57107;SDS011;42987;52.916;6.542;2024-03-06T08:20:56;21.48;;;19.00;;
57107;SDS011;42987;52.916;6.542;2024-03-06T08:23:22;20.70;;;18.50;;
57107;SDS011;42987;52.916;6.542;2024-03-06T08:25:48;21.00;;;18.63;;
57107;SDS011;42987;52.916;6.542;2024-03-06T08:28:14;22.90;;;18.60;;
57107;SDS011;42987;52.916;6.542;2024-03-06T08:30:40;21.30;;;19.13;;
57107;SDS011;42987;52.916;6.542;2024-03-06T08:33:07;21.20;;;18.55;;
57107;SDS011;42987;52.916;6.542;2024-03-06T08:35:33;19.77;;;17.35;;
57107;SDS011;42987;52.916;6.542;2024-03-06T08:38:01;23.42;;;20.17;;
57107;SDS011;42987;52.916;6.542;2024-03-06T08:40:27;21.90;;;18.90;;
57107;SDS011;42987;52.916;6.542;2024-03-06T08:42:53;22.08;;;18.80;;
57107;SDS011;42987;52.916;6.542;2024-03-06T08:45:20;22.25;;;19.63;;
57107;SDS011;42987;52.916;6.542;2024-03-06T08:47:46;20.40;;;18.08;;
57107;SDS011;42987;52.916;6.542;2024-03-06T08:50:13;21.30;;;18.67;;
57107;SDS011;42987;52.916;6.542;2024-03-06T08:52:40;20.15;;;18.05;;
57107;SDS011;42987;52.916;6.542;2024-03-06T08:55:06;19.85;;;17.70;;
57107;SDS011;42987;52.916;6.542;2024-03-06T08:57:33;23.63;;;18.83;;
57107;SDS011;42987;52.916;6.542;2024-03-06T08:59:59;20.80;;;18.60;;
57107;SDS011;42987;52.916;6.542;2024-03-06T09:02:25;21.98;;;18.55;;
57107;SDS011;42987;52.916;6.542;2024-03-06T09:04:52;22.23;;;18.75;;
57107;SDS011;42987;52.916;6.542;2024-03-06T09:07:18;21.85;;;18.35;;
57107;SDS011;42987;52.916;6.542;2024-03-06T09:09:45;21.90;;;19.38;;
57107;SDS011;42987;52.916;6.542;2024-03-06T09:12:11;25.02;;;19.67;;
57107;SDS011;42987;52.916;6.542;2024-03-06T09:14:40;21.55;;;19.25;;
57107;SDS011;42987;52.916;6.542;2024-03-06T09:17:06;22.87;;;19.30;;
57107;SDS011;42987;52.916;6.542;2024-03-06T09:19:35;24.13;;;18.58;;
57107;SDS011;42987;52.916;6.542;2024-03-06T09:22:04;21.92;;;19.63;;
57107;SDS011;42987;52.916;6.542;2024-03-06T09:24:30;23.27;;;19.30;;
57107;SDS011;42987;52.916;6.542;2024-03-06T09:26:56;24.10;;;18.90;;
57107;SDS011;42987;52.916;6.542;2024-03-06T09:29:22;24.08;;;19.05;;
57107;SDS011;42987;52.916;6.542;2024-03-06T09:31:47;22.73;;;18.75;;
57107;SDS011;42987;52.916;6.542;2024-03-06T09:34:14;25.05;;;19.48;;
57107;SDS011;42987;52.916;6.542;2024-03-06T09:36:47;22.70;;;20.10;;
57107;SDS011;42987;52.916;6.542;2024-03-06T09:39:14;26.23;;;20.42;;
57107;SDS011;42987;52.916;6.542;2024-03-06T09:41:49;22.48;;;19.45;;
57107;SDS011;42987;52.916;6.542;2024-03-06T09:44:16;21.88;;;19.48;;
57107;SDS011;42987;52.916;6.542;2024-03-06T09:46:43;23.08;;;20.30;;
57107;SDS011;42987;52.916;6.542;2024-03-06T09:49:19;23.10;;;20.55;;
57107;SDS011;42987;52.916;6.542;2024-03-06T09:51:46;20.85;;;18.65;;
57107;SDS011;42987;52.916;6.542;2024-03-06T09:54:17;28.70;;;19.98;;
57107;SDS011;42987;52.916;6.542;2024-03-06T09:56:45;26.10;;;20.75;;
57107;SDS011;42987;52.916;6.542;2024-03-06T09:59:12;21.83;;;19.55;;
57107;SDS011;42987;52.916;6.542;2024-03-06T10:01:41;24.75;;;20.83;;
57107;SDS011;42987;52.916;6.542;2024-03-06T10:06:55;22.08;;;19.30;;
57107;SDS011;42987;52.916;6.542;2024-03-06T10:09:23;23.58;;;20.23;;
57107;SDS011;42987;52.916;6.542;2024-03-06T10:11:50;24.58;;;19.50;;
57107;SDS011;42987;52.916;6.542;2024-03-06T10:14:19;24.10;;;19.63;;
57107;SDS011;42987;52.916;6.542;2024-03-06T10:16:55;25.85;;;20.73;;
57107;SDS011;42987;52.916;6.542;2024-03-06T10:19:22;26.63;;;21.83;;
57107;SDS011;42987;52.916;6.542;2024-03-06T10:21:49;24.33;;;20.58;;
57107;SDS011;42987;52.916;6.542;2024-03-06T10:24:19;28.35;;;20.67;;
57107;SDS011;42987;52.916;6.542;2024-03-06T10:26:54;29.90;;;21.35;;
57107;SDS011;42987;52.916;6.542;2024-03-06T10:29:22;22.83;;;19.92;;
57107;SDS011;42987;52.916;6.542;2024-03-06T10:31:53;29.45;;;22.27;;
57107;SDS011;42987;52.916;6.542;2024-03-06T10:34:21;26.73;;;22.30;;
57107;SDS011;42987;52.916;6.542;2024-03-06T10:39:19;24.83;;;21.50;;
57107;SDS011;42987;52.916;6.542;2024-03-06T10:41:45;25.95;;;20.58;;
57107;SDS011;42987;52.916;6.542;2024-03-06T10:44:16;30.83;;;23.60;;
57107;SDS011;42987;52.916;6.542;2024-03-06T10:47:03;27.88;;;22.45;;
57107;SDS011;42987;52.916;6.542;2024-03-06T10:49:31;31.23;;;23.15;;
57107;SDS011;42987;52.916;6.542;2024-03-06T10:52:05;30.98;;;24.25;;
57107;SDS011;42987;52.916;6.542;2024-03-06T10:54:32;35.80;;;24.83;;
57107;SDS011;42987;52.916;6.542;2024-03-06T10:57:00;32.13;;;24.58;;
57107;SDS011;42987;52.916;6.542;2024-03-06T10:59:27;30.02;;;23.17;;
57107;SDS011;42987;52.916;6.542;2024-03-06T11:01:54;27.90;;;22.98;;
57107;SDS011;42987;52.916;6.542;2024-03-06T11:04:28;30.17;;;23.58;;
57107;SDS011;42987;52.916;6.542;2024-03-06T11:06:59;33.15;;;25.80;;
57107;SDS011;42987;52.916;6.542;2024-03-06T11:09:27;34.42;;;26.50;;
57107;SDS011;42987;52.916;6.542;2024-03-06T11:11:53;33.00;;;24.65;;
57107;SDS011;42987;52.916;6.542;2024-03-06T11:14:21;33.33;;;26.20;;
57107;SDS011;42987;52.916;6.542;2024-03-06T11:17:04;35.60;;;25.75;;
57107;SDS011;42987;52.916;6.542;2024-03-06T11:20:07;31.20;;;23.38;;
57107;SDS011;42987;52.916;6.542;2024-03-06T11:28:18;32.35;;;24.50;;
57107;SDS011;42987;52.916;6.542;2024-03-06T11:33:52;31.70;;;24.90;;
57107;SDS011;42987;52.916;6.542;2024-03-06T11:38:50;34.05;;;24.73;;
57107;SDS011;42987;52.916;6.542;2024-03-06T11:41:24;32.42;;;25.10;;
57107;SDS011;42987;52.916;6.542;2024-03-06T11:43:52;30.33;;;25.17;;
57107;SDS011;42987;52.916;6.542;2024-03-06T11:46:21;30.15;;;23.83;;
57107;SDS011;42987;52.916;6.542;2024-03-06T11:48:54;35.65;;;25.80;;
57107;SDS011;42987;52.916;6.542;2024-03-06T11:51:23;32.53;;;25.67;;
57107;SDS011;42987;52.916;6.542;2024-03-06T11:53:50;31.52;;;24.80;;
57107;SDS011;42987;52.916;6.542;2024-03-06T11:56:17;33.55;;;25.85;;
57107;SDS011;42987;52.916;6.542;2024-03-06T11:58:45;37.78;;;27.45;;
57107;SDS011;42987;52.916;6.542;2024-03-06T12:01:11;36.80;;;26.98;;
57107;SDS011;42987;52.916;6.542;2024-03-06T12:03:46;33.38;;;26.05;;
57107;SDS011;42987;52.916;6.542;2024-03-06T12:06:12;31.77;;;26.70;;
57107;SDS011;42987;52.916;6.542;2024-03-06T12:08:40;32.28;;;26.45;;
57107;SDS011;42987;52.916;6.542;2024-03-06T12:11:06;34.67;;;26.95;;
57107;SDS011;42987;52.916;6.542;2024-03-06T12:13:32;31.25;;;24.65;;
57107;SDS011;42987;52.916;6.542;2024-03-06T12:16:03;32.22;;;25.13;;
57107;SDS011;42987;52.916;6.542;2024-03-06T12:18:30;30.85;;;24.65;;
57107;SDS011;42987;52.916;6.542;2024-03-06T12:20:56;34.72;;;26.60;;
57107;SDS011;42987;52.916;6.542;2024-03-06T12:23:28;35.33;;;25.80;;
57107;SDS011;42987;52.916;6.542;2024-03-06T12:26:04;34.05;;;27.38;;
57107;SDS011;42987;52.916;6.542;2024-03-06T12:28:35;33.78;;;27.08;;
57107;SDS011;42987;52.916;6.542;2024-03-06T12:31:02;38.88;;;27.98;;
57107;SDS011;42987;52.916;6.542;2024-03-06T12:33:29;42.00;;;30.85;;
57107;SDS011;42987;52.916;6.542;2024-03-06T12:36:02;44.20;;;30.15;;
57107;SDS011;42987;52.916;6.542;2024-03-06T12:38:35;39.40;;;28.67;;
57107;SDS011;42987;52.916;6.542;2024-03-06T12:41:02;40.15;;;29.38;;
57107;SDS011;42987;52.916;6.542;2024-03-06T12:43:29;35.25;;;27.92;;
57107;SDS011;42987;52.916;6.542;2024-03-06T12:45:55;35.55;;;27.55;;
57107;SDS011;42987;52.916;6.542;2024-03-06T12:48:22;37.70;;;27.15;;
57107;SDS011;42987;52.916;6.542;2024-03-06T12:50:49;40.05;;;28.35;;
57107;SDS011;42987;52.916;6.542;2024-03-06T12:53:19;39.33;;;29.00;;
57107;SDS011;42987;52.916;6.542;2024-03-06T12:55:45;34.03;;;26.88;;
57107;SDS011;42987;52.916;6.542;2024-03-06T12:58:12;32.35;;;26.25;;
57107;SDS011;42987;52.916;6.542;2024-03-06T13:00:38;33.38;;;26.42;;
57107;SDS011;42987;52.916;6.542;2024-03-06T13:03:04;33.42;;;25.95;;
57107;SDS011;42987;52.916;6.542;2024-03-06T13:05:31;32.25;;;25.80;;
57107;SDS011;42987;52.916;6.542;2024-03-06T13:07:57;33.20;;;26.50;;
57107;SDS011;42987;52.916;6.542;2024-03-06T13:10:25;31.65;;;25.70;;
57107;SDS011;42987;52.916;6.542;2024-03-06T13:12:50;33.10;;;25.73;;
57107;SDS011;42987;52.916;6.542;2024-03-06T13:15:16;34.25;;;28.33;;
57107;SDS011;42987;52.916;6.542;2024-03-06T13:17:42;33.38;;;26.95;;
57107;SDS011;42987;52.916;6.542;2024-03-06T13:20:08;32.90;;;27.35;;
57107;SDS011;42987;52.916;6.542;2024-03-06T13:22:34;31.35;;;25.90;;
57107;SDS011;42987;52.916;6.542;2024-03-06T13:25:00;33.85;;;25.88;;
57107;SDS011;42987;52.916;6.542;2024-03-06T13:27:29;33.83;;;27.75;;
57107;SDS011;42987;52.916;6.542;2024-03-06T13:29:55;31.95;;;25.77;;
57107;SDS011;42987;52.916;6.542;2024-03-06T13:32:21;32.88;;;27.08;;
57107;SDS011;42987;52.916;6.542;2024-03-06T13:34:50;35.05;;;27.10;;
57107;SDS011;42987;52.916;6.542;2024-03-06T13:37:16;28.65;;;25.33;;
57107;SDS011;42987;52.916;6.542;2024-03-06T13:39:42;32.72;;;27.60;;
57107;SDS011;42987;52.916;6.542;2024-03-06T13:42:08;34.00;;;28.08;;
57107;SDS011;42987;52.916;6.542;2024-03-06T13:44:37;32.80;;;27.50;;
57107;SDS011;42987;52.916;6.542;2024-03-06T13:47:03;31.35;;;27.55;;
57107;SDS011;42987;52.916;6.542;2024-03-06T13:49:41;32.13;;;26.83;;
57107;SDS011;42987;52.916;6.542;2024-03-06T13:52:07;33.83;;;27.65;;
57107;SDS011;42987;52.916;6.542;2024-03-06T13:54:42;33.67;;;29.25;;
57107;SDS011;42987;52.916;6.542;2024-03-06T13:57:08;33.17;;;29.27;;
57107;SDS011;42987;52.916;6.542;2024-03-06T13:59:35;33.40;;;29.05;;
57107;SDS011;42987;52.916;6.542;2024-03-06T14:02:01;34.42;;;27.58;;
57107;SDS011;42987;52.916;6.542;2024-03-06T14:04:30;31.23;;;27.88;;
57107;SDS011;42987;52.916;6.542;2024-03-06T14:06:59;33.33;;;28.23;;
57107;SDS011;42987;52.916;6.542;2024-03-06T14:09:25;35.55;;;29.70;;
57107;SDS011;42987;52.916;6.542;2024-03-06T14:11:52;33.35;;;28.77;;
57107;SDS011;42987;52.916;6.542;2024-03-06T14:14:19;33.03;;;28.63;;
57107;SDS011;42987;52.916;6.542;2024-03-06T14:16:45;30.15;;;26.13;;
57107;SDS011;42987;52.916;6.542;2024-03-06T14:19:11;31.52;;;27.77;;
57107;SDS011;42987;52.916;6.542;2024-03-06T14:21:37;31.77;;;27.27;;
57107;SDS011;42987;52.916;6.542;2024-03-06T14:24:04;31.88;;;28.05;;
57107;SDS011;42987;52.916;6.542;2024-03-06T14:26:34;30.52;;;26.70;;
57107;SDS011;42987;52.916;6.542;2024-03-06T14:29:00;32.35;;;28.08;;
57107;SDS011;42987;52.916;6.542;2024-03-06T14:31:32;34.00;;;27.60;;
57107;SDS011;42987;52.916;6.542;2024-03-06T14:33:59;32.97;;;28.08;;
57107;SDS011;42987;52.916;6.542;2024-03-06T14:36:25;32.08;;;28.10;;
57107;SDS011;42987;52.916;6.542;2024-03-06T14:38:51;31.83;;;27.58;;
57107;SDS011;42987;52.916;6.542;2024-03-06T14:41:20;31.90;;;27.67;;